createdAt,value
2022-11-19T00:02:45.097Z,-2.50
2022-11-19T00:06:58.941Z,-2.60
2022-11-19T00:11:14.998Z,-2.70
2022-11-19T00:15:30.399Z,-2.80
2022-11-19T00:19:44.038Z,-2.90
2022-11-19T00:23:58.214Z,-2.90
2022-11-19T00:28:11.837Z,-3.00
2022-11-19T00:32:26.893Z,-3.10
2022-11-19T00:36:41.216Z,-3.20
2022-11-19T00:40:55.090Z,-3.20
2022-11-19T00:45:09.679Z,-3.30
2022-11-19T00:49:24.846Z,-3.40
2022-11-19T00:53:44.988Z,-3.40
2022-11-19T00:57:59.240Z,-3.40
2022-11-19T01:02:12.914Z,-3.50
2022-11-19T01:06:28.310Z,-3.50
2022-11-19T01:10:42.612Z,-3.60
2022-11-19T01:14:56.397Z,-3.60
2022-11-19T01:19:12.281Z,-3.70
2022-11-19T01:23:27.307Z,-3.70
2022-11-19T01:27:41.173Z,-3.70
2022-11-19T01:31:54.973Z,-3.80
2022-11-19T01:36:12.316Z,-3.80
2022-11-19T01:40:27.449Z,-3.80
2022-11-19T01:45:05.738Z,-3.90
2022-11-19T01:49:21.408Z,-3.90
2022-11-19T01:53:37.788Z,-3.90
2022-11-19T01:57:57.297Z,-3.90
2022-11-19T02:02:11.250Z,-3.90
2022-11-19T02:06:24.901Z,-3.90
2022-11-19T02:10:47.104Z,-3.90
2022-11-19T02:15:26.546Z,-3.90
2022-11-19T02:19:57.618Z,-3.90
2022-11-19T02:24:24.078Z,-4.00
2022-11-19T02:28:42.190Z,-4.00
2022-11-19T02:33:06.025Z,-4.00
2022-11-19T02:37:26.784Z,-4.10
2022-11-19T02:41:44.331Z,-4.10
2022-11-19T02:46:02.814Z,-4.20
2022-11-19T02:50:21.103Z,-4.20
2022-11-19T02:54:34.777Z,-4.20
2022-11-19T02:59:11.359Z,-4.30
2022-11-19T03:03:42.696Z,-4.30
2022-11-19T03:07:58.247Z,-4.30
2022-11-19T03:12:19.366Z,-4.40
2022-11-19T03:16:41.818Z,-4.40
2022-11-19T03:21:02.802Z,-4.40
2022-11-19T03:25:23.648Z,-4.50
2022-11-19T03:29:42.704Z,-4.60
2022-11-19T03:33:59.668Z,-4.60
2022-11-19T03:38:17.345Z,-4.60
2022-11-19T03:42:33.717Z,-4.70
2022-11-19T03:46:51.115Z,-4.70
2022-11-19T03:51:09.810Z,-4.70
2022-11-19T03:55:29.530Z,-4.70
2022-11-19T03:59:44.948Z,-4.80
2022-11-19T04:04:12.521Z,-4.80
2022-11-19T04:08:26.180Z,-4.80
2022-11-19T04:12:39.848Z,-4.90
2022-11-19T04:16:54.999Z,-4.90
2022-11-19T04:21:08.704Z,-4.90
2022-11-19T04:25:22.426Z,-5.00
2022-11-19T04:29:38.175Z,-4.90
2022-11-19T04:33:53.215Z,-4.90
2022-11-19T04:38:06.870Z,-5.00
2022-11-19T04:42:20.689Z,-5.00
2022-11-19T04:46:35.163Z,-5.00
2022-11-19T04:50:50.322Z,-5.00
2022-11-19T04:55:04.072Z,-5.00
2022-11-19T04:59:18.140Z,-5.10
2022-11-19T05:03:32.363Z,-5.10
2022-11-19T05:07:47.791Z,-5.10
2022-11-19T05:12:01.550Z,-5.10
2022-11-19T05:16:15.228Z,-5.10
2022-11-19T05:20:28.972Z,-5.10
2022-11-19T05:24:44.041Z,-5.10
2022-11-19T05:28:57.762Z,-5.10
2022-11-19T05:33:11.486Z,-5.20
2022-11-19T05:37:25.098Z,-5.20
2022-11-19T05:41:40.121Z,-5.20
2022-11-19T05:45:53.905Z,-5.20
2022-11-19T05:50:08.586Z,-5.30
2022-11-19T05:54:22.248Z,-5.20
2022-11-19T05:58:37.402Z,-5.30
2022-11-19T06:02:51.186Z,-5.30
2022-11-19T06:07:05.098Z,-5.30
2022-11-19T06:11:32.751Z,-5.30
2022-11-19T06:15:47.820Z,-5.30
2022-11-19T06:20:01.561Z,-5.30
2022-11-19T06:24:15.655Z,-5.30
2022-11-19T06:28:29.314Z,-5.40
2022-11-19T06:32:44.570Z,-5.40
2022-11-19T06:36:58.761Z,-5.40
2022-11-19T06:41:12.514Z,-5.40
2022-11-19T06:45:26.527Z,-5.40
2022-11-19T06:49:41.663Z,-5.40
2022-11-19T06:53:55.456Z,-5.40
2022-11-19T06:58:09.911Z,-5.40
2022-11-19T07:02:23.667Z,-5.30
2022-11-19T07:06:38.770Z,-5.30
2022-11-19T07:10:52.779Z,-5.30
2022-11-19T07:15:07.202Z,-5.20
2022-11-19T07:19:21.433Z,-5.20
2022-11-19T07:23:36.870Z,-5.10
2022-11-19T07:27:50.616Z,-5.10
2022-11-19T07:32:04.646Z,-5.00
2022-11-19T07:36:18.796Z,-5.00
2022-11-19T07:40:33.907Z,-4.90
2022-11-19T07:44:50.895Z,-4.80
2022-11-19T07:49:08.278Z,-4.70
2022-11-19T07:53:22.016Z,-4.50
2022-11-19T07:57:37.189Z,-4.20
2022-11-19T08:01:50.932Z,-4.00
2022-11-19T08:06:05.401Z,-3.80
2022-11-19T08:10:19.201Z,-3.50
2022-11-19T08:14:34.298Z,-3.00
2022-11-19T08:18:47.962Z,-2.20
2022-11-19T08:23:01.656Z,-1.40
2022-11-19T08:27:15.389Z,-0.60
2022-11-19T08:31:30.624Z,0.00
2022-11-19T08:35:44.319Z,0.50
2022-11-19T08:39:58.088Z,0.90
2022-11-19T08:44:11.904Z,1.20
2022-11-19T08:48:26.948Z,1.40
2022-11-19T08:52:40.685Z,1.60
2022-11-19T08:56:54.410Z,1.80
2022-11-19T09:01:11.998Z,1.90
2022-11-19T09:05:27.672Z,2.00
2022-11-19T09:09:41.427Z,2.10
2022-11-19T09:13:55.076Z,2.10
2022-11-19T09:18:08.773Z,2.20
2022-11-19T09:22:23.887Z,2.30
2022-11-19T09:26:37.670Z,2.30
2022-11-19T09:30:57.076Z,2.40
2022-11-19T09:35:10.841Z,2.60
2022-11-19T09:39:26.005Z,2.70
2022-11-19T09:43:44.476Z,2.90
2022-11-19T09:48:17.111Z,3.10
2022-11-19T09:52:34.453Z,3.40
2022-11-19T09:56:52.958Z,3.60
2022-11-19T10:01:07.185Z,3.80
2022-11-19T10:05:31.512Z,4.00
2022-11-19T10:10:01.315Z,4.30
2022-11-19T10:14:32.534Z,4.50
2022-11-19T10:18:56.930Z,4.80
2022-11-19T10:23:16.477Z,4.90
2022-11-19T10:27:36.590Z,5.10
2022-11-19T10:31:52.660Z,5.30
2022-11-19T10:36:10.270Z,5.20
2022-11-19T10:40:26.579Z,5.20
2022-11-19T10:44:43.862Z,5.10
2022-11-19T10:49:00.173Z,5.10
2022-11-19T10:53:18.075Z,5.00
2022-11-19T10:57:33.936Z,4.80
2022-11-19T11:01:51.679Z,4.60
2022-11-19T11:06:10.009Z,4.50
2022-11-19T11:10:36.100Z,4.40
2022-11-19T11:14:53.287Z,4.20
2022-11-19T11:19:14.728Z,4.00
2022-11-19T11:23:31.365Z,3.80
2022-11-19T11:27:45.140Z,3.60
2022-11-19T11:31:58.839Z,3.50
2022-11-19T11:36:16.843Z,3.40
2022-11-19T11:40:32.358Z,3.40
2022-11-19T11:44:52.451Z,3.40
2022-11-19T11:49:12.426Z,3.50
2022-11-19T11:53:32.949Z,3.60
2022-11-19T11:57:56.975Z,3.80
2022-11-19T12:02:22.581Z,4.00
2022-11-19T12:06:45.879Z,4.10
2022-11-19T12:11:08.204Z,4.30
2022-11-19T12:15:34.928Z,4.20
2022-11-19T12:20:22.496Z,4.20
2022-11-19T12:24:51.690Z,4.00
2022-11-19T12:29:15.403Z,3.90
2022-11-19T12:33:46.533Z,3.60
2022-11-19T12:38:24.022Z,3.40
2022-11-19T12:42:50.505Z,3.20
2022-11-19T12:47:20.968Z,2.90
2022-11-19T12:51:52.261Z,2.70
2022-11-19T12:56:17.793Z,2.50
2022-11-19T13:00:36.882Z,2.30
2022-11-19T13:04:59.495Z,2.20
2022-11-19T13:09:20.145Z,2.00
2022-11-19T13:13:38.736Z,2.00
2022-11-19T13:17:55.603Z,1.90
2022-11-19T13:22:17.502Z,1.80
2022-11-19T13:26:34.384Z,1.80
2022-11-19T13:30:51.337Z,1.80
2022-11-19T13:35:15.113Z,1.70
2022-11-19T13:39:35.005Z,1.60
2022-11-19T13:44:07.866Z,1.60
2022-11-19T13:48:27.778Z,1.60
2022-11-19T13:52:50.884Z,1.50
2022-11-19T13:57:06.939Z,1.50
2022-11-19T14:01:49.113Z,1.40
2022-11-19T14:06:34.181Z,1.40
2022-11-19T14:11:04.173Z,1.30
2022-11-19T14:15:59.894Z,1.30
2022-11-19T14:21:00.314Z,1.20
2022-11-19T14:26:04.585Z,1.10
2022-11-19T14:30:22.396Z,1.10
2022-11-19T14:34:39.701Z,1.00
2022-11-19T14:38:57.708Z,0.90
2022-11-19T14:43:40.999Z,0.80
2022-11-19T14:48:04.889Z,0.70
2022-11-19T14:52:23.777Z,0.60
2022-11-19T14:56:39.207Z,0.60
2022-11-19T15:01:07.824Z,0.50
2022-11-19T15:05:23.795Z,0.40
2022-11-19T15:10:11.715Z,0.30
2022-11-19T15:15:03.535Z,0.20
2022-11-19T15:19:35.299Z,0.10
2022-11-19T15:24:02.293Z,0.00
2022-11-19T15:28:32.146Z,-0.10
2022-11-19T15:33:00.802Z,-0.20
2022-11-19T15:37:17.511Z,-0.30
2022-11-19T15:41:32.528Z,-0.40
2022-11-19T15:45:51.056Z,-0.50
2022-11-19T15:50:07.247Z,-0.50
2022-11-19T15:54:26.860Z,-0.50
2022-11-19T15:58:43.708Z,-0.50
2022-11-19T16:02:57.541Z,-0.60
2022-11-19T16:07:13.598Z,-0.60
2022-11-19T16:11:48.908Z,-0.70
2022-11-19T16:16:19.947Z,-0.70
2022-11-19T16:20:34.718Z,-0.80
2022-11-19T16:25:04.893Z,-0.80
2022-11-19T16:29:20.909Z,-0.90
2022-11-19T16:33:35.726Z,-0.90
2022-11-19T16:37:50.451Z,-0.90
2022-11-19T16:42:19.682Z,-0.90
2022-11-19T16:46:36.404Z,-1.00
2022-11-19T16:50:50.162Z,-1.00
2022-11-19T16:55:05.066Z,-1.10
2022-11-19T16:59:23.828Z,-1.10
2022-11-19T17:03:39.694Z,-1.20
2022-11-19T17:07:54.941Z,-1.20
2022-11-19T17:12:25.125Z,-1.20
2022-11-19T17:16:40.627Z,-1.20
2022-11-19T17:20:57.853Z,-1.30
2022-11-19T17:25:14.795Z,-1.30
2022-11-19T17:29:28.787Z,-1.40
2022-11-19T17:33:55.603Z,-1.50
2022-11-19T17:38:12.635Z,-1.50
2022-11-19T17:42:43.846Z,-1.50
2022-11-19T17:46:57.620Z,-1.60
2022-11-19T17:51:13.459Z,-1.60
2022-11-19T17:55:27.267Z,-1.60
2022-11-19T17:59:41.182Z,-1.60
2022-11-19T18:03:55.047Z,-1.60
2022-11-19T18:08:10.142Z,-1.50
2022-11-19T18:12:23.858Z,-1.50
2022-11-19T18:16:40.119Z,-1.50
2022-11-19T18:20:58.915Z,-1.60
2022-11-19T18:25:18.726Z,-1.50
2022-11-19T18:29:33.616Z,-1.60
2022-11-19T18:33:48.013Z,-1.60
2022-11-19T18:38:01.689Z,-1.60
2022-11-19T18:42:16.793Z,-1.70
2022-11-19T18:46:30.675Z,-1.70
2022-11-19T18:50:44.486Z,-1.70
2022-11-19T18:54:58.257Z,-1.70
2022-11-19T18:59:14.854Z,-1.80
2022-11-19T19:03:28.553Z,-1.80
2022-11-19T19:07:42.344Z,-1.80
2022-11-19T19:12:14.247Z,-1.80
2022-11-19T19:16:30.422Z,-1.80
2022-11-19T19:20:44.137Z,-1.80
2022-11-19T19:24:58.518Z,-1.80
2022-11-19T19:29:12.754Z,-1.80
2022-11-19T19:33:28.145Z,-1.80
2022-11-19T19:37:42.503Z,-1.70
2022-11-19T19:41:56.248Z,-1.60
2022-11-19T19:46:13.595Z,-1.60
2022-11-19T19:50:28.834Z,-1.60
2022-11-19T19:54:43.604Z,-1.60
2022-11-19T19:58:58.401Z,-1.50
2022-11-19T20:03:15.571Z,-1.40
2022-11-19T20:07:30.694Z,-1.30
2022-11-19T20:11:44.467Z,-1.20
2022-11-19T20:15:59.522Z,-1.10
2022-11-19T20:20:13.755Z,-1.00
2022-11-19T20:24:29.196Z,-1.00
2022-11-19T20:28:43.757Z,-1.10
2022-11-19T20:32:57.569Z,-1.20
2022-11-19T20:37:11.452Z,-1.30
2022-11-19T20:41:45.220Z,-1.40
2022-11-19T20:46:07.784Z,-1.50
2022-11-19T20:50:21.440Z,-1.60
2022-11-19T20:54:35.603Z,-1.70
2022-11-19T20:58:50.620Z,-1.70
2022-11-19T21:03:04.371Z,-1.80
2022-11-19T21:07:18.339Z,-1.90
2022-11-19T21:11:33.175Z,-2.00
2022-11-19T21:15:48.298Z,-2.00
2022-11-19T21:20:02.113Z,-2.10
2022-11-19T21:24:16.274Z,-2.10
2022-11-19T21:28:30.388Z,-2.20
2022-11-19T21:32:45.790Z,-2.20
2022-11-19T21:36:59.483Z,-2.20
2022-11-19T21:41:13.139Z,-2.30
2022-11-19T21:45:26.945Z,-2.30
2022-11-19T21:49:42.034Z,-2.40
2022-11-19T21:53:56.455Z,-2.50
2022-11-19T21:58:11.924Z,-2.50
2022-11-19T22:02:25.634Z,-2.60
2022-11-19T22:06:40.933Z,-2.60
2022-11-19T22:10:54.654Z,-2.70
2022-11-19T22:15:10.216Z,-2.70
2022-11-19T22:19:24.081Z,-2.70
2022-11-19T22:23:39.154Z,-2.80
2022-11-19T22:27:53.012Z,-2.80
2022-11-19T22:32:06.961Z,-2.90
2022-11-19T22:36:22.008Z,-2.90
2022-11-19T22:40:37.356Z,-3.00
2022-11-19T22:44:51.039Z,-3.00
2022-11-19T22:49:04.788Z,-2.90
2022-11-19T22:53:18.628Z,-3.00
2022-11-19T22:57:33.666Z,-2.90
2022-11-19T23:01:47.393Z,-3.00
2022-11-19T23:06:01.147Z,-3.00
2022-11-19T23:10:15.257Z,-3.00
2022-11-19T23:14:30.473Z,-3.10
2022-11-19T23:18:48.120Z,-3.10
2022-11-19T23:23:01.860Z,-3.10
2022-11-19T23:27:19.343Z,-3.10
2022-11-19T23:31:39.975Z,-3.20
2022-11-19T23:35:53.728Z,-3.20
2022-11-19T23:40:08.981Z,-3.20
2022-11-19T23:44:22.704Z,-3.20
2022-11-19T23:48:39.322Z,-3.20
2022-11-19T23:52:53.105Z,-3.20
2022-11-19T23:57:07.026Z,-3.30
